x

Long Island - 30 Nm South Of Islip, Ny (44025) Wave Buoy

8:50pm - Thu 11th Feb 2016 All times are EST. -5 hours from GMT.

  • Sig Wave height 9.2ft
  • Swell Direction
  • Peak Period 7s
  • Average Period 6s
  • Wind
    34mph, 43mph gusts
  • Sea Temp 44°f
  • Air Temp 26°f
  • Sea Pressure 1018.6mb
  • Long Island - 30 Nm South Of Islip, Ny
  • Long Island - 30 Nm South Of Islip, Ny

More Historic Weather Station data

Upgrade to MSW Pro to gain access to the past 30 days of data for over 8000 Wavebouys and Weather Stations around the globe.

Join Pro

Comparision Forecast

View Surf forecast
   
Thu 02/11 8:50pm 9ft 7s 6s 34 43 mph 1018.6mb 44f 26f
7:50pm 9ft 7s 6s 34 43 mph 1017.4mb 44f 27f
6:50pm 9ft 7s 6s 34 49 mph 1016.5mb 44f 27f
5:50pm 9ft 7s 6s 36 45 mph 1015.1mb 44f 27f
4:50pm 8ft 7s 5s 36 45 mph 1013.7mb 44f 27f
3:50pm 8ft 6s 5s 34 43 mph 1013mb 44f 26f
2:50pm 7.5ft 6s 5s 31 40 mph 1012.2mb 44f 27f
1:50pm 7ft 6s 5s 29 40 mph 1011.8mb 44f 25f
12:50pm 7.5ft 6s 5s 31 40 mph 1011.6mb 44f 25f
11:50am 7ft 6s 5s 29 38 mph 1011.8mb 44f 26f
10:50am 6.5ft 6s 5s 29 40 mph 1012.2mb 44f 26f
6:50am 7.5ft 7s 5s 31 40 mph 1009.3mb 44f 29f
5:50am 7.5ft 6s 5s 31 38 mph 1008.3mb 44f 29f
4:50am 7ft 6s 5s 29 38 mph 1007.6mb 44f 29f
3:50am 6.5ft 6s 5s 29 36 mph 1007mb 44f 29f
2:50am 7ft 6s 5s 29 36 mph 1006.9mb 44f 31f
1:50am 6ft 6s 5s 27 34 mph 1006.4mb 44f 33f
12:50am 7ft 6s 5s 25 29 mph 1006.5mb 44f 34f
Wed 02/10 11:50pm 7ft 6s 5s 25 31 mph 1006.6mb 44f 33f
10:50pm 7ft 6s 5s 25 31 mph 1006.8mb 44f 34f
9:50pm 7ft 6s 5s 27 31 mph 1006.4mb 44f 35f
8:50pm 7ft 6s 5s 25 31 mph 1006.2mb 44f 35f
7:50pm 7ft 6s 5s 25 29 mph 1006.1mb 44f 36f
6:50pm 6ft 5s 5s 25 29 mph 1005.7mb 44f 37f
5:50pm 6ft 5s 5s 25 29 mph 1005mb 44f 37f
4:50pm 5.5ft 11s 5s 25 29 mph 1004.2mb 44f 38f
3:50pm 6ft 5s 5s 25 29 mph 1003.5mb 44f 38f
2:50pm 6ft 5s 5s 22 27 mph 1002.8mb 44f 37f
1:50pm 6ft 5s 5s 20 25 mph 1002.6mb 44f 35f
12:50pm 6.5ft 6s 5s 25 29 mph 1002.4mb 44f 35f
11:50am 5.5ft 11s 5s 25 29 mph 1002.5mb 44f 35f
10:50am 4.5ft 11s 5s 22 27 mph 1002.6mb 44f 36f
9:50am 4.5ft 11s 6s 18 20 mph 1002.7mb 44f 35f
8:50am 4ft 11s 7s 13 18 mph 1002.7mb 44f 36f
7:50am 4.5ft 12s 7s 9 13 mph 1002.4mb 44f 36f
6:50am 4ft 10s 7s 9 13 mph 1002.2mb 44f 36f
5:50am 4ft 10s 7s 4 7 mph 1002mb 44f 35f
4:50am 4ft 9s 6s 7 9 mph 1002.2mb 44f 35f
3:50am 4.5ft 11s 7s 4 7 mph 1001.8mb 44f 35f
2:50am 4.5ft 10s 7s 2 4 mph 1002mb 44f 35f
1:50am 4.5ft 11s 7s 2 4 mph 1002.1mb 44f 35f
12:50am 4.5ft 8s 7s 4 7 mph 1002.1mb 44f 35f
Tue 02/09 11:50pm 4.5ft 13s 7s 2 4 mph 1002.3mb 44f 35f
10:50pm 4.5ft 11s 7s 4 7 mph 1002.5mb 44f 35f
9:50pm 4.5ft 10s 7s 7 9 mph 1002.4mb 44f 35f
8:50pm 4.5ft 11s 7s 7 9 mph 1002.8mb 44f 34f
7:50pm 4.5ft 13s 7s 4 7 mph 1002.9mb 44f 34f
6:50pm 4.5ft 11s 6s 2 7 mph 1002.8mb 44f 34f
5:50pm 5ft 8s 6s 4 7 mph 1002.2mb 44f 34f
4:50pm 5ft 8s 6s 7 11 mph 1001.7mb 44f 34f
3:50pm 5ft 7s 6s 7 11 mph 1001.6mb 44f 33f
2:50pm 5ft 11s 6s 13 16 mph 1000.7mb 44f 34f
1:50pm 5.5ft 11s 6s 16 18 mph 1000.4mb 44f 34f
12:50pm 6ft 13s 6s 16 18 mph 1000.9mb 44f 34f
11:50am 6ft 9s 6s 18 20 mph 1001.7mb 44f 34f
10:50am 6ft 9s 6s 20 25 mph 1001.9mb 44f 34f
9:50am 6ft 10s 6s 20 25 mph 1002.3mb 44f 33f
8:50am 6ft 11s 7s 18 22 mph 1003.2mb 44f 34f
7:50am 6ft 10s 7s 16 20 mph 1003.5mb 44f 35f
6:50am 6.5ft 11s 7s 16 18 mph 1004.1mb 45f 34f
5:50am 7ft 12s 6s 16 22 mph 1003.6mb 45f 33f
4:50am 7ft 12s 6s 22 27 mph 1003.3mb 45f 33f
3:50am 7ft 11s 7s 18 20 mph 1004.2mb 45f 32f
2:50am 8ft 13s 8s 13 18 mph 1005.7mb 45f 32f
1:50am 9ft 11s 8s 13 18 mph 1006.3mb 45f 31f
12:50am 8.5ft 13s 8s 13 18 mph 1006.7mb 45f 31f
Mon 02/08 11:50pm 9ft 12s 8s 11 13 mph 1007.5mb 45f 30f
10:50pm 10ft 15s 9s 9 11 mph 1008.3mb 45f 30f
9:50pm 9.5ft 13s 8s 11 16 mph 1008.6mb 45f 29f
8:50pm 11ft 11s 8s 13 16 mph 1008.7mb 45f 30f
7:50pm 10ft 11s 8s 18 22 mph 1007.9mb 45f 29f
6:50pm 11ft 12s 8s 18 22 mph 1008.1mb 45f 29f
5:50pm 12ft 14s 8s 20 25 mph 1007.4mb 45f 31f
4:50pm 12ft 14s 8s 25 29 mph 1005.5mb 45f 30f
3:50pm 12ft 10s 7s 25 29 mph 1006mb 45f 30f
2:50pm 13ft 11s 8s 27 34 mph 1005.1mb 45f 29f
1:50pm 14ft 12s 8s 29 36 mph 1004.8mb 45f 30f
12:50pm 14ft 11s 8s 31 38 mph 1004.7mb 45f 30f
11:50am 14.5ft 13s 8s 29 36 mph 1005.3mb 45f 32f
10:50am 15.5ft 11s 8s 31 36 mph 1005.6mb 45f 33f
9:50am 13ft 11s 7s 34 40 mph 1005.5mb 45f 34f
8:50am 16.5ft 10s 8s 34 40 mph 1005.7mb 45f 35f
7:50am 15.5ft 10s 8s 34 40 mph 1005.1mb 45f 35f
6:50am 15ft 9s 7s 36 45 mph 1004.8mb 45f 35f
5:50am 13ft 9s 7s 38 47 mph 1004.2mb 45f 38f
4:50am 13.5ft 8s 7s 36 45 mph 1003.2mb 45f 40f
3:50am 12ft 8s 6s 34 43 mph 1003.4mb 45f 41f
2:50am 11ft 7s 6s 31 38 mph 1004.5mb 44f 41f